Latest Weather Observations for Scoresby

IDV60801

Issued at 1:02 am EST Wednesday 29 June 2016 (issued every 30 minutes, with the page automatically refreshed every 10 minutes)

About weather observations | Map of weather stations | Latest weather observations for VIC | Other Formats
Station Details ID: 086104 Name: SCORESBY RESEARCH INSTITUTE Lat: -37.87 Lon: 145.26 Height: 80.0 m
Data from the previous 72 hours. | See also: Recent months at Scoresby
Date/Time
EST
Temp
°C
App
Temp
°C
Dew
Point
°C
Rel
Hum
%
Delta-T
°C
Wind Press
QNH
hPa
Press
MSL
hPa
Rain since
9am
mm
Dir  Spd
km/h
Gust
km/h
Spd
kts
Gust
kts
29/01:00am 10.6 8.1 8.4 86 1.1 NNE 11 19 6 10 - - 1.0
29/12:30am 10.5 8.4 8.4 87 1.0 NNE 9 15 5 8 - - 1.0
29/12:00am 10.3 7.8 8.2 87 1.0 NNE 11 19 6 10 - - 1.0
 
Date/Time
EST
Temp
°C
App
Temp
°C
Dew
Point
°C
Rel
Hum
%
Delta-T
°C
Wind Press
QNH
hPa
Press
MSL
hPa
Rain since
9am
mm
Dir  Spd
km/h
Gust
km/h
Spd
kts
Gust
kts
28/11:30pm 10.2 8.1 8.3 88 0.9 NNE 9 15 5 8 - - 1.0
28/11:00pm 10.0 7.9 8.3 89 0.8 NNE 9 17 5 9 - - 1.0
28/10:30pm 9.8 6.9 8.2 90 0.8 NNE 13 20 7 11 - - 1.0
28/10:00pm 10.3 7.3 7.7 84 1.3 N 13 20 7 11 - - 0.2
28/09:30pm 10.4 8.1 7.3 81 1.5 NNE 9 15 5 8 - - 0.0
28/09:00pm 10.5 8.1 7.2 80 1.6 N 9 19 5 10 - - 0.0
28/08:30pm 10.4 7.7 7.3 81 1.5 NNE 11 15 6 8 - - 0.0
28/08:00pm 10.3 7.5 7.0 80 1.6 NNE 11 20 6 11 - - 0.0
28/07:30pm 10.4 7.3 7.1 80 1.6 NNE 13 22 7 12 - - 0.0
28/07:00pm 10.5 7.4 7.2 80 1.6 NNE 13 20 7 11 - - 0.0
28/06:30pm 10.4 7.7 7.3 81 1.5 NNE 11 20 6 11 - - 0.0
28/06:00pm 10.6 7.9 7.3 80 1.6 NNE 11 17 6 9 - - 0.0
28/05:30pm 10.8 8.1 7.3 79 1.7 NNE 11 15 6 8 - - 0.0
28/05:00pm 11.9 9.3 7.6 75 2.1 N 11 20 6 11 - - 0.0
28/04:30pm 12.8 10.2 7.9 72 2.4 N 11 19 6 10 - - 0.0
28/04:00pm 13.5 11.3 7.7 68 2.9 N 9 17 5 9 - - 0.0
28/03:30pm 13.7 11.5 7.9 68 2.9 N 9 17 5 9 - - 0.0
28/03:00pm 13.4 11.6 7.8 69 2.8 N 7 17 4 9 - - 0.0
28/02:30pm 14.1 11.5 7.6 65 3.2 NNW 11 19 6 10 - - 0.0
28/02:00pm 13.7 10.7 7.5 66 3.1 N 13 20 7 11 - - 0.0
28/01:30pm 13.3 10.6 7.3 67 2.9 N 11 20 6 11 - - 0.0
28/01:00pm 13.5 10.8 7.3 66 3.0 N 11 17 6 9 - - 0.0
28/12:30pm 13.5 11.1 7.1 65 3.1 N 9 19 5 10 - - 0.0
28/12:00pm 14.0 11.2 7.1 63 3.4 N 11 24 6 13 - - 0.0
28/11:30am 13.2 10.4 6.8 65 3.1 NNE 11 19 6 10 - - 0.0
28/11:00am 12.7 10.1 6.3 65 3.0 N 9 13 5 7 - - 0.0
28/10:30am 11.8 8.5 6.5 70 2.5 NNE 13 19 7 10 - - 0.0
28/10:00am 11.0 8.0 6.2 72 2.3 NNE 11 20 6 11 - - 0.0
28/09:30am 10.3 7.3 5.9 74 2.0 NNE 11 19 6 10 - - 0.0
28/09:00am 9.5 5.6 5.5 76 1.8 N 15 22 8 12 - - 0.2
28/08:30am 9.0 4.6 5.0 76 1.8 NNE 17 24 9 13 - - 0.2
28/08:00am 8.9 6.4 4.7 75 1.9 N 7 17 4 9 - - 0.2
28/07:30am 8.6 5.7 4.8 77 1.7 NNE 9 19 5 10 - - 0.2
28/07:00am 8.4 4.7 4.6 77 1.7 NNE 13 22 7 12 - - 0.2
28/06:30am 8.2 5.3 4.8 79 1.5 NNE 9 19 5 10 - - 0.2
28/06:00am 7.5 5.0 4.6 82 1.3 N 7 19 4 10 - - 0.2
28/05:30am 7.0 3.7 4.5 84 1.1 N 11 20 6 11 - - 0.2
28/05:00am 6.8 3.1 4.3 84 1.1 N 13 19 7 10 - - 0.2
28/04:30am 6.9 3.6 4.4 84 1.1 NNE 11 17 6 9 - - 0.2
28/04:00am 6.8 3.5 4.3 84 1.1 NNE 11 19 6 10 - - 0.2
28/03:30am 6.1 3.6 3.8 85 1.0 N 6 15 3 8 - - 0.2
28/03:00am 5.9 3.4 3.7 86 0.9 NNE 6 11 3 6 - - 0.2
28/02:30am 5.8 3.3 4.0 88 0.8 NNE 6 9 3 5 - - 0.2
28/02:00am 6.0 3.4 4.2 88 0.8 NNE 7 15 4 8 - - 0.2
28/01:30am 6.4 3.8 4.4 87 0.9 NNE 7 17 4 9 - - 0.2
28/01:00am 6.5 4.2 4.7 88 0.8 N 6 13 3 7 - - 0.2
28/12:30am 6.7 4.4 5.0 89 0.7 NW 6 9 3 5 - - 0.2
28/12:00am 6.6 4.7 4.9 89 0.7 N 4 11 2 6 - - 0.2
 
Date/Time
EST
Temp
°C
App
Temp
°C
Dew
Point
°C
Rel
Hum
%
Delta-T
°C
Wind Press
QNH
hPa
Press
MSL
hPa
Rain since
9am
mm
Dir  Spd
km/h
Gust
km/h
Spd
kts
Gust
kts
27/11:30pm 7.0 4.7 5.5 90 0.7 NNE 7 13 4 7 - - 0.2
27/11:00pm 6.6 4.4 5.2 91 0.6 NNE 6 9 3 5 - - 0.2
27/10:30pm 6.9 4.6 5.5 91 0.6 NNE 7 13 4 7 - - 0.2
27/10:00pm 6.8 4.4 5.3 90 0.7 NNE 7 11 4 6 - - 0.2
27/09:30pm 7.3 5.0 5.9 91 0.6 N 7 13 4 7 - - 0.2
27/09:00pm 7.0 4.7 5.8 92 0.5 NNE 7 13 4 7 - - 0.2
27/08:30pm 7.0 5.2 5.6 91 0.6 NNE 4 6 2 3 - - 0.2
27/08:00pm 8.1 5.7 6.9 92 0.6 N 9 17 5 9 - - 0.2
27/07:30pm 7.9 6.0 6.7 92 0.6 NNE 6 9 3 5 - - 0.2
27/07:00pm 8.3 6.3 6.9 91 0.7 NNE 7 13 4 7 - - 0.2
27/06:30pm 8.5 6.1 7.1 91 0.7 NNE 9 15 5 8 - - 0.2
27/06:00pm 8.8 6.1 7.3 90 0.7 NNE 11 17 6 9 - - 0.2
27/05:30pm 8.8 6.8 7.3 90 0.7 NNE 7 13 4 7 - - 0.2
27/05:00pm 8.8 7.0 7.1 89 0.8 NNE 6 11 3 6 - - 0.2
27/04:30pm 9.2 7.4 7.3 88 0.9 N 6 9 3 5 - - 0.2
27/04:00pm 9.3 7.3 7.1 86 1.0 NNE 7 13 4 7 - - 0.2
27/03:30pm 9.4 7.6 7.0 85 1.1 N 6 11 3 6 - - 0.2
27/03:00pm 9.4 7.5 7.5 88 0.9 NNE 7 11 4 6 - - 0.2
27/02:30pm 9.1 7.3 7.1 87 0.9 N 6 11 3 6 - - 0.2
27/02:00pm 9.2 7.1 6.6 84 1.2 N 7 11 4 6 - - 0.2
27/01:30pm 9.0 6.9 6.8 86 1.0 N 7 11 4 6 - - 0.2
27/01:00pm 8.8 6.2 6.3 84 1.2 N 9 13 5 7 - - 0.2
27/12:30pm 8.9 6.0 6.3 84 1.2 NNE 11 19 6 10 - - 0.2
27/12:00pm 8.5 5.5 6.0 84 1.1 NNE 11 19 6 10 - - 0.2
27/11:30am 7.8 4.8 5.8 87 0.9 NNE 11 20 6 11 - - 0.2
27/11:00am 8.0 5.2 5.3 83 1.2 N 9 15 5 8 - - 0.0
27/10:30am 7.8 3.9 5.4 85 1.1 NNE 15 22 8 12 - - 0.0
27/10:00am 7.1 2.8 5.3 88 0.8 NE 17 24 9 13 - - 0.0
27/09:30am 6.9 3.3 4.9 87 0.9 NNE 13 19 7 10 - - 0.0
27/09:00am 6.8 3.5 4.8 87 0.9 NNE 11 19 6 10 - - 0.4
27/08:30am 6.8 3.1 4.5 85 1.0 NNE 13 19 7 10 - - 0.2
27/08:00am 6.7 3.3 4.2 84 1.1 NNE 11 19 6 10 - - 0.0
27/07:30am 7.0 3.6 3.8 80 1.4 NNE 11 19 6 10 - - 0.0
27/07:00am 7.0 3.5 3.6 79 1.5 NNE 11 17 6 9 - - 0.0
27/06:30am 6.7 2.8 3.5 80 1.4 NNE 13 19 7 10 - - 0.0
27/06:00am 6.6 3.0 3.2 79 1.4 NNE 11 19 6 10 - - 0.0
27/05:30am 6.3 3.1 2.9 79 1.4 N 9 13 5 7 - - 0.0
27/05:00am 6.5 3.3 2.9 78 1.5 N 9 17 5 9 - - 0.0
27/04:30am 6.0 2.7 2.6 79 1.4 NNE 9 17 5 9 - - 0.0
27/04:00am 6.1 2.8 2.7 79 1.4 NNE 9 15 5 8 - - 0.0
27/03:30am 6.2 2.6 2.8 79 1.4 NNE 11 17 6 9 - - 0.0
27/03:00am 6.6 3.4 3.0 78 1.5 N 9 13 5 7 - - 0.0
27/02:30am 6.5 3.7 3.3 80 1.3 NNE 7 13 4 7 - - 0.0
27/02:00am 6.5 3.0 3.3 80 1.3 NNE 11 17 6 9 - - 0.0
27/01:30am 6.3 2.7 3.1 80 1.3 NNE 11 19 6 10 - - 0.0
27/01:00am 6.1 2.8 2.7 79 1.4 NNE 9 13 5 7 - - 0.0
27/12:30am 5.5 2.2 2.7 82 1.2 NNE 9 15 5 8 - - 0.0
27/12:00am 5.4 2.1 2.4 81 1.2 NNE 9 15 5 8 - - 0.0
 
Date/Time
EST
Temp
°C
App
Temp
°C
Dew
Point
°C
Rel
Hum
%
Delta-T
°C
Wind Press
QNH
hPa
Press
MSL
hPa
Rain since
9am
mm
Dir  Spd
km/h
Gust
km/h
Spd
kts
Gust
kts
26/11:30pm 5.5 2.2 2.3 80 1.3 NNE 9 15 5 8 - - 0.0
26/11:00pm 5.6 2.3 2.4 80 1.3 NNE 9 15 5 8 - - 0.0
26/10:30pm 5.9 2.6 2.5 79 1.4 NNE 9 15 5 8 - - 0.0
26/10:00pm 5.8 2.4 2.1 77 1.5 NNE 9 13 5 7 - - 0.0
26/09:30pm 6.0 2.2 1.9 75 1.7 NNE 11 17 6 9 - - 0.0
26/09:00pm 5.5 2.4 1.2 74 1.7 NNE 7 11 4 6 - - 0.0
26/08:30pm 5.7 2.8 1.2 73 1.8 NNE 6 9 3 5 - - 0.0
26/08:00pm 6.0 3.1 1.2 71 1.9 NNE 6 9 3 5 - - 0.0
26/07:30pm 6.7 3.8 1.4 69 2.1 N 6 9 3 5 - - 0.0
26/07:00pm 6.9 3.8 1.6 69 2.2 N 7 11 4 6 - - 0.0
26/06:30pm 7.4 4.4 2.1 69 2.2 N 7 13 4 7 - - 0.0
26/06:00pm 7.7 4.7 2.2 68 2.3 N 7 15 4 8 - - 0.0
26/05:30pm 8.0 4.6 1.8 65 2.6 N 9 17 5 9 - - 0.0
26/05:00pm 8.4 5.0 2.0 64 2.7 N 9 20 5 11 - - 0.0
26/04:30pm 8.5 5.1 1.6 62 2.8 N 9 19 5 10 - - 0.0
26/04:00pm 8.8 4.7 2.2 63 2.8 NNW 13 22 7 12 - - 0.0
26/03:30pm 8.8 4.6 1.7 61 2.9 NNW 13 24 7 13 - - 0.0
26/03:00pm 9.4 3.9 1.6 58 3.2 NW 20 33 11 18 - - 0.0
26/02:30pm 9.4 3.2 2.0 60 3.1 NNW 24 41 13 22 - - 0.0
26/02:00pm 9.8 4.7 2.9 62 3.0 NNW 19 30 10 16 - - 0.0
26/01:30pm 9.6 6.2 4.0 68 2.5 NNW 11 20 6 11 - - 0.0
26/01:00pm 9.3 5.4 3.5 67 2.5 NNW 13 24 7 13 - - 0.0
26/12:30pm 9.1 4.8 3.3 67 2.5 N 15 20 8 11 - - 0.0
26/12:00pm 9.0 5.6 3.8 70 2.3 NNE 11 22 6 12 - - 0.0
26/11:30am 8.6 4.5 4.6 76 1.8 NNE 15 20 8 11 - - 0.0
26/11:00am 7.9 3.8 4.3 78 1.6 NNE 15 24 8 13 - - 0.0
26/10:30am 6.9 2.7 3.9 81 1.3 NNE 15 24 8 13 - - 0.0
26/10:00am 6.8 2.5 3.4 79 1.4 NNE 15 24 8 13 - - 0.0
26/09:30am 6.6 3.1 3.4 80 1.4 NNE 11 20 6 11 - - 0.0
26/09:00am 5.4 2.2 2.9 84 1.0 NNE 9 19 5 10 - - 0.2
26/08:30am 4.5 1.2 2.4 86 0.8 N 9 13 5 7 - - 0.2
26/08:00am 4.0 0.3 2.2 88 0.7 NNE 11 19 6 10 - - 0.2
26/07:30am 3.9 0.2 2.1 88 0.7 NNE 11 19 6 10 - - 0.2
26/07:00am 3.5 0.5 1.9 89 0.6 NNE 7 15 4 8 - - 0.2
26/06:30am 3.8 0.5 2.2 89 0.6 NNE 9 15 5 8 - - 0.2
26/06:00am 3.4 0.6 1.9 90 0.6 NNE 6 11 3 6 - - 0.2
26/05:30am 3.9 0.6 2.3 89 0.6 NNE 9 15 5 8 - - 0.2
26/05:00am 3.7 0.9 2.2 90 0.6 NNE 6 11 3 6 - - 0.2
26/04:30am 3.9 1.1 2.3 89 0.6 NNE 6 9 3 5 - - 0.2
26/04:00am 4.3 1.6 2.5 88 0.7 NNE 6 11 3 6 - - 0.2
26/03:30am 4.3 1.4 2.7 89 0.6 NNE 7 11 4 6 - - 0.2
26/03:00am 4.7 1.5 3.0 89 0.7 NNE 9 17 5 9 - - 0.2
26/02:30am 4.4 1.5 2.8 89 0.7 NNE 7 13 4 7 - - 0.2
26/02:00am 4.4 1.2 3.1 91 0.5 NNE 9 13 5 7 - - 0.2
26/01:30am 4.4 1.8 3.1 91 0.5 N 6 9 3 5 - - 0.2

Other Formats:

Comma delimited format used in spreadsheet applications
http://www.bom.gov.au/fwo/IDV60801/IDV60801.95867.axf

JavaScript Object Notation format (JSON) in row-major order
http://www.bom.gov.au/fwo/IDV60801/IDV60801.95867.json